Contact Us:
Email: info@sawbill.com
Phone: (218)663-7150
Fax: (218)663-7980
Mail: 4620 Sawbill Trail
Box 2129
Tofte, MN 55615


Powered by
Movable Type 3.15
 
Sawbill Weather History Archives: January 2014
Current Sawbill Weather History | « December 2013 | February 2014 »


Date

High
Temperature

Low
Temperature

Barometric
Pressure

Relative
Humidity 7AM

9 AM
Temperature

Moisture

Snow

1/31/14 5 -15 29.98 58% 0 Trace Trace
1/30/14 3 -14 29.92 58% -14 0
1/29/14 16 0 29.78 58% 1 0
1/28/14 -3 -22 29.88 67% -3 0
1/27/14 -10 -22 30.02 67% -22 Trace Trace
1/26/14 2 -23 30.02 67% -22 Trace Trace
1/25/14 -3 -10 29.70 67% -3 .11" 1"
1/24/14 21 -8 29.74 67% -8 .17" 2"
1/23/14 8 -21 29.74 58% 8 .12" 1.5"
1/22/14 -3 -21 30.36 58% -21 0
1/21/14 0 -19 29.98 58% -6 0
1/20/14 -6 -20 30.16 58% -18 0
1/19/14 16 -11 30.08 62% -11 0
1/18/14 21 3 29.74 68% 16 .09" 1"
1/17/14 6 -12 29.92 74% 3 Trace Trace
1/16/14 17 0 29.94 74% 0 .17" 2.5"
1/15/14 15 -4 29.60 81% 15 .45" 5.5"
1/14/14 10 -6 30.00 63% -5 0
1/13/14 22 4 29.76 63% 5 0
1/12/14 29 20 29.74 71% 20 Trace Trace
1/11/14 25 18 29.74 93% 23 Trace Trace
1/10/14 24 17 30.12 95% 24 0
1/9/14 19 -1 29.90 92% 19 Trace Trace
1/8/14 -1 -18 30.12 77% -2 0
1/7/14 -11 -21 30.12 77% -16 0
1/6/14 -19 -31 29.92 77% -21 0
1/5/14 -14 -31 30.02 77% -30 0
1/4/14 13 -20 30.10 77% -19 0
1/3/14 14 -2 30.10 77% 5 .14" 1.5"
1/2/14 -2 -30 30.00 77% -2 Trace Trace
1/1/14 -7 -31 30.30 77% -30 0
 


Home I Trip Planning I Rentals and Outfitting I Reservations I Campgrounds I Sawbill Store I Sawbill News I Contact

© 1997 - 2017, Sawbill Canoe Outfitters, Inc. I Privacy Policy